sensor_id;sensor_type;location;lat;lon;timestamp;temperature;humidity
49379;DHT22;35254;47.990;-1.608;2022-11-11T00:00:36;19.80;62.40
49379;DHT22;35254;47.990;-1.608;2022-11-11T00:03:02;19.80;62.70
49379;DHT22;35254;47.990;-1.608;2022-11-11T00:05:28;19.80;62.60
49379;DHT22;35254;47.990;-1.608;2022-11-11T00:07:55;19.80;62.40
49379;DHT22;35254;47.990;-1.608;2022-11-11T00:10:30;19.80;61.90
49379;DHT22;35254;47.990;-1.608;2022-11-11T00:13:01;19.90;60.70
49379;DHT22;35254;47.990;-1.608;2022-11-11T00:15:28;20.00;60.20
49379;DHT22;35254;47.990;-1.608;2022-11-11T00:17:54;20.00;59.60
49379;DHT22;35254;47.990;-1.608;2022-11-11T00:20:38;20.00;59.40
49379;DHT22;35254;47.990;-1.608;2022-11-11T00:23:24;20.00;59.10
49379;DHT22;35254;47.990;-1.608;2022-11-11T00:26:10;20.00;59.00
49379;DHT22;35254;47.990;-1.608;2022-11-11T00:28:35;20.00;58.20
49379;DHT22;35254;47.990;-1.608;2022-11-11T00:31:07;20.00;58.10
49379;DHT22;35254;47.990;-1.608;2022-11-11T00:33:33;19.90;57.40
49379;DHT22;35254;47.990;-1.608;2022-11-11T00:35:59;19.90;57.40
49379;DHT22;35254;47.990;-1.608;2022-11-11T00:38:25;19.90;57.10
49379;DHT22;35254;47.990;-1.608;2022-11-11T00:41:10;19.90;57.00
49379;DHT22;35254;47.990;-1.608;2022-11-11T00:43:36;19.90;56.90
49379;DHT22;35254;47.990;-1.608;2022-11-11T00:46:01;19.80;57.00
49379;DHT22;35254;47.990;-1.608;2022-11-11T00:48:45;19.80;56.90
49379;DHT22;35254;47.990;-1.608;2022-11-11T00:51:29;19.80;56.70
49379;DHT22;35254;47.990;-1.608;2022-11-11T00:53:55;19.70;56.50
49379;DHT22;35254;47.990;-1.608;2022-11-11T00:56:22;19.70;56.50
49379;DHT22;35254;47.990;-1.608;2022-11-11T00:58:48;19.70;56.80
49379;DHT22;35254;47.990;-1.608;2022-11-11T01:01:14;19.70;56.50
49379;DHT22;35254;47.990;-1.608;2022-11-11T01:03:40;19.70;56.30
49379;DHT22;35254;47.990;-1.608;2022-11-11T01:06:06;19.70;56.40
49379;DHT22;35254;47.990;-1.608;2022-11-11T01:08:32;19.70;56.40
49379;DHT22;35254;47.990;-1.608;2022-11-11T01:10:58;19.70;55.60
49379;DHT22;35254;47.990;-1.608;2022-11-11T01:13:29;19.70;56.00
49379;DHT22;35254;47.990;-1.608;2022-11-11T01:16:06;19.70;55.60
49379;DHT22;35254;47.990;-1.608;2022-11-11T01:18:32;19.70;55.40
49379;DHT22;35254;47.990;-1.608;2022-11-11T01:23:39;19.70;55.20
49379;DHT22;35254;47.990;-1.608;2022-11-11T01:26:20;19.70;55.10
49379;DHT22;35254;47.990;-1.608;2022-11-11T01:28:54;19.60;55.20
49379;DHT22;35254;47.990;-1.608;2022-11-11T01:31:22;19.60;55.40
49379;DHT22;35254;47.990;-1.608;2022-11-11T01:33:48;19.50;55.30
49379;DHT22;35254;47.990;-1.608;2022-11-11T01:36:19;19.50;55.00
49379;DHT22;35254;47.990;-1.608;2022-11-11T01:38:50;19.40;55.10
49379;DHT22;35254;47.990;-1.608;2022-11-11T01:41:20;19.40;55.00
49379;DHT22;35254;47.990;-1.608;2022-11-11T01:46:57;19.40;54.80
49379;DHT22;35254;47.990;-1.608;2022-11-11T01:52:29;19.40;54.70
49379;DHT22;35254;47.990;-1.608;2022-11-11T01:55:01;19.40;54.70
49379;DHT22;35254;47.990;-1.608;2022-11-11T01:57:48;19.50;54.50
49379;DHT22;35254;47.990;-1.608;2022-11-11T02:00:17;19.50;54.60
49379;DHT22;35254;47.990;-1.608;2022-11-11T02:02:50;19.50;54.60
49379;DHT22;35254;47.990;-1.608;2022-11-11T02:05:19;19.50;54.50
49379;DHT22;35254;47.990;-1.608;2022-11-11T02:08:10;19.60;54.50
49379;DHT22;35254;47.990;-1.608;2022-11-11T02:10:39;19.60;54.80
49379;DHT22;35254;47.990;-1.608;2022-11-11T02:13:12;19.60;54.70
49379;DHT22;35254;47.990;-1.608;2022-11-11T02:15:57;19.60;54.40
49379;DHT22;35254;47.990;-1.608;2022-11-11T02:18:23;19.60;54.40
49379;DHT22;35254;47.990;-1.608;2022-11-11T02:20:49;19.70;54.60
49379;DHT22;35254;47.990;-1.608;2022-11-11T02:23:23;19.70;54.30
49379;DHT22;35254;47.990;-1.608;2022-11-11T02:25:50;19.70;54.20
49379;DHT22;35254;47.990;-1.608;2022-11-11T02:28:18;19.70;54.40
49379;DHT22;35254;47.990;-1.608;2022-11-11T02:30:45;19.70;54.80
49379;DHT22;35254;47.990;-1.608;2022-11-11T02:33:11;19.70;54.30
49379;DHT22;35254;47.990;-1.608;2022-11-11T02:35:39;19.70;54.40
49379;DHT22;35254;47.990;-1.608;2022-11-11T02:38:07;19.70;54.30
49379;DHT22;35254;47.990;-1.608;2022-11-11T02:40:41;19.70;54.10
49379;DHT22;35254;47.990;-1.608;2022-11-11T02:43:26;19.40;55.00
49379;DHT22;35254;47.990;-1.608;2022-11-11T02:45:52;19.30;56.30
49379;DHT22;35254;47.990;-1.608;2022-11-11T02:48:18;19.30;57.00
49379;DHT22;35254;47.990;-1.608;2022-11-11T02:50:43;19.20;57.40
49379;DHT22;35254;47.990;-1.608;2022-11-11T02:53:09;19.20;58.00
49379;DHT22;35254;47.990;-1.608;2022-11-11T02:55:35;19.20;58.10
49379;DHT22;35254;47.990;-1.608;2022-11-11T02:58:00;19.10;58.60
49379;DHT22;35254;47.990;-1.608;2022-11-11T03:00:26;19.10;58.80
49379;DHT22;35254;47.990;-1.608;2022-11-11T03:02:52;19.10;58.90
49379;DHT22;35254;47.990;-1.608;2022-11-11T03:05:18;19.10;59.00
49379;DHT22;35254;47.990;-1.608;2022-11-11T03:07:43;19.10;59.00
49379;DHT22;35254;47.990;-1.608;2022-11-11T03:10:09;19.10;59.40
49379;DHT22;35254;47.990;-1.608;2022-11-11T03:12:36;19.10;59.40
49379;DHT22;35254;47.990;-1.608;2022-11-11T03:15:02;19.10;59.60
49379;DHT22;35254;47.990;-1.608;2022-11-11T03:17:28;19.00;59.60
49379;DHT22;35254;47.990;-1.608;2022-11-11T03:20:10;19.00;59.90
49379;DHT22;35254;47.990;-1.608;2022-11-11T03:23:10;19.00;59.90
49379;DHT22;35254;47.990;-1.608;2022-11-11T03:25:38;19.00;60.10
49379;DHT22;35254;47.990;-1.608;2022-11-11T03:28:09;19.00;60.10
49379;DHT22;35254;47.990;-1.608;2022-11-11T03:30:35;18.90;60.20
49379;DHT22;35254;47.990;-1.608;2022-11-11T03:33:02;18.90;60.30
49379;DHT22;35254;47.990;-1.608;2022-11-11T03:35:29;19.00;60.30
49379;DHT22;35254;47.990;-1.608;2022-11-11T03:37:55;19.00;60.40
49379;DHT22;35254;47.990;-1.608;2022-11-11T03:40:39;18.90;60.50
49379;DHT22;35254;47.990;-1.608;2022-11-11T03:43:05;18.90;60.50
49379;DHT22;35254;47.990;-1.608;2022-11-11T03:45:31;18.90;60.60
49379;DHT22;35254;47.990;-1.608;2022-11-11T03:47:57;18.90;60.60
49379;DHT22;35254;47.990;-1.608;2022-11-11T03:50:23;18.90;60.70
49379;DHT22;35254;47.990;-1.608;2022-11-11T03:52:48;18.90;60.90
49379;DHT22;35254;47.990;-1.608;2022-11-11T03:55:14;18.90;60.90
49379;DHT22;35254;47.990;-1.608;2022-11-11T03:57:44;18.90;61.00
49379;DHT22;35254;47.990;-1.608;2022-11-11T04:00:12;18.90;61.00
49379;DHT22;35254;47.990;-1.608;2022-11-11T04:02:37;18.90;61.10
49379;DHT22;35254;47.990;-1.608;2022-11-11T04:05:22;18.90;61.10
49379;DHT22;35254;47.990;-1.608;2022-11-11T04:08:14;18.80;61.30
49379;DHT22;35254;47.990;-1.608;2022-11-11T04:11:01;18.90;61.20
49379;DHT22;35254;47.990;-1.608;2022-11-11T04:13:28;18.80;61.30
49379;DHT22;35254;47.990;-1.608;2022-11-11T04:16:27;18.80;61.30
49379;DHT22;35254;47.990;-1.608;2022-11-11T04:18:53;18.80;61.30
49379;DHT22;35254;47.990;-1.608;2022-11-11T04:21:37;18.80;61.40
49379;DHT22;35254;47.990;-1.608;2022-11-11T04:26:54;18.90;61.60
49379;DHT22;35254;47.990;-1.608;2022-11-11T04:29:20;18.80;61.90
49379;DHT22;35254;47.990;-1.608;2022-11-11T04:32:14;18.80;62.00
49379;DHT22;35254;47.990;-1.608;2022-11-11T04:35:07;18.80;61.90
49379;DHT22;35254;47.990;-1.608;2022-11-11T04:37:35;18.80;62.10
49379;DHT22;35254;47.990;-1.608;2022-11-11T04:40:01;18.80;62.20
49379;DHT22;35254;47.990;-1.608;2022-11-11T04:42:45;18.70;62.20
49379;DHT22;35254;47.990;-1.608;2022-11-11T04:45:12;18.70;62.30
49379;DHT22;35254;47.990;-1.608;2022-11-11T04:50:22;18.70;62.10
49379;DHT22;35254;47.990;-1.608;2022-11-11T04:52:48;18.70;62.20
49379;DHT22;35254;47.990;-1.608;2022-11-11T04:55:14;18.70;62.10
49379;DHT22;35254;47.990;-1.608;2022-11-11T04:57:58;18.70;62.10
49379;DHT22;35254;47.990;-1.608;2022-11-11T05:00:24;18.80;62.00
49379;DHT22;35254;47.990;-1.608;2022-11-11T05:02:53;18.70;61.90
49379;DHT22;35254;47.990;-1.608;2022-11-11T05:05:37;18.70;61.90
49379;DHT22;35254;47.990;-1.608;2022-11-11T05:08:21;18.70;61.90
49379;DHT22;35254;47.990;-1.608;2022-11-11T05:11:05;18.70;62.00
49379;DHT22;35254;47.990;-1.608;2022-11-11T05:13:31;18.80;62.10
49379;DHT22;35254;47.990;-1.608;2022-11-11T05:16:20;18.70;62.10
49379;DHT22;35254;47.990;-1.608;2022-11-11T05:19:15;18.70;62.10
49379;DHT22;35254;47.990;-1.608;2022-11-11T05:22:29;18.70;61.90
49379;DHT22;35254;47.990;-1.608;2022-11-11T05:24:56;18.70;62.00
49379;DHT22;35254;47.990;-1.608;2022-11-11T05:27:40;18.70;61.90
49379;DHT22;35254;47.990;-1.608;2022-11-11T05:30:08;18.70;61.90
49379;DHT22;35254;47.990;-1.608;2022-11-11T05:32:34;18.70;62.00
49379;DHT22;35254;47.990;-1.608;2022-11-11T05:35:00;18.70;61.80
49379;DHT22;35254;47.990;-1.608;2022-11-11T05:37:25;18.70;61.80
49379;DHT22;35254;47.990;-1.608;2022-11-11T05:39:51;18.70;62.00
49379;DHT22;35254;47.990;-1.608;2022-11-11T05:42:17;18.70;62.10
49379;DHT22;35254;47.990;-1.608;2022-11-11T05:44:42;18.70;62.10
49379;DHT22;35254;47.990;-1.608;2022-11-11T05:47:08;18.70;62.10
49379;DHT22;35254;47.990;-1.608;2022-11-11T05:49:34;18.70;62.00
49379;DHT22;35254;47.990;-1.608;2022-11-11T05:52:00;18.60;62.10
49379;DHT22;35254;47.990;-1.608;2022-11-11T05:54:26;18.60;62.20
49379;DHT22;35254;47.990;-1.608;2022-11-11T05:56:51;18.60;62.10
49379;DHT22;35254;47.990;-1.608;2022-11-11T05:59:17;18.60;62.20
49379;DHT22;35254;47.990;-1.608;2022-11-11T06:01:43;18.60;62.30
49379;DHT22;35254;47.990;-1.608;2022-11-11T06:04:09;18.60;62.20
49379;DHT22;35254;47.990;-1.608;2022-11-11T06:06:35;18.60;62.40
49379;DHT22;35254;47.990;-1.608;2022-11-11T06:09:02;18.60;62.60
49379;DHT22;35254;47.990;-1.608;2022-11-11T06:11:28;18.60;62.60
49379;DHT22;35254;47.990;-1.608;2022-11-11T06:13:54;18.60;62.70
49379;DHT22;35254;47.990;-1.608;2022-11-11T06:16:19;18.60;62.60
49379;DHT22;35254;47.990;-1.608;2022-11-11T06:18:45;18.60;62.80
49379;DHT22;35254;47.990;-1.608;2022-11-11T06:21:11;18.60;62.80
49379;DHT22;35254;47.990;-1.608;2022-11-11T06:23:37;18.50;62.80
49379;DHT22;35254;47.990;-1.608;2022-11-11T06:26:03;18.50;62.70
49379;DHT22;35254;47.990;-1.608;2022-11-11T06:28:52;18.50;62.90
49379;DHT22;35254;47.990;-1.608;2022-11-11T06:31:20;18.60;63.00
49379;DHT22;35254;47.990;-1.608;2022-11-11T06:33:46;18.50;63.00
49379;DHT22;35254;47.990;-1.608;2022-11-11T06:36:14;18.50;62.90
49379;DHT22;35254;47.990;-1.608;2022-11-11T06:38:41;18.60;62.90
49379;DHT22;35254;47.990;-1.608;2022-11-11T06:41:07;18.50;63.10
49379;DHT22;35254;47.990;-1.608;2022-11-11T06:43:34;18.50;63.20
49379;DHT22;35254;47.990;-1.608;2022-11-11T06:46:00;18.50;63.10
49379;DHT22;35254;47.990;-1.608;2022-11-11T06:48:27;18.50;62.90
49379;DHT22;35254;47.990;-1.608;2022-11-11T06:50:54;18.50;62.90
49379;DHT22;35254;47.990;-1.608;2022-11-11T06:53:20;18.50;62.70
49379;DHT22;35254;47.990;-1.608;2022-11-11T06:55:47;18.40;62.70
49379;DHT22;35254;47.990;-1.608;2022-11-11T06:58:17;18.50;62.70
49379;DHT22;35254;47.990;-1.608;2022-11-11T07:00:43;18.50;62.70
49379;DHT22;35254;47.990;-1.608;2022-11-11T07:03:12;18.40;62.80
49379;DHT22;35254;47.990;-1.608;2022-11-11T07:05:38;18.40;62.80
49379;DHT22;35254;47.990;-1.608;2022-11-11T07:08:05;18.40;63.10
49379;DHT22;35254;47.990;-1.608;2022-11-11T07:10:32;18.40;63.00
49379;DHT22;35254;47.990;-1.608;2022-11-11T07:12:58;18.40;63.10
49379;DHT22;35254;47.990;-1.608;2022-11-11T07:15:24;18.40;63.10
49379;DHT22;35254;47.990;-1.608;2022-11-11T07:17:50;18.40;63.00
49379;DHT22;35254;47.990;-1.608;2022-11-11T07:20:15;18.40;62.90
49379;DHT22;35254;47.990;-1.608;2022-11-11T07:22:41;18.40;62.90
49379;DHT22;35254;47.990;-1.608;2022-11-11T07:25:07;18.40;63.00
49379;DHT22;35254;47.990;-1.608;2022-11-11T07:27:36;18.40;63.20
49379;DHT22;35254;47.990;-1.608;2022-11-11T07:30:03;18.40;63.20
49379;DHT22;35254;47.990;-1.608;2022-11-11T07:32:29;18.30;63.10
49379;DHT22;35254;47.990;-1.608;2022-11-11T07:34:55;18.40;63.30
49379;DHT22;35254;47.990;-1.608;2022-11-11T07:37:21;18.40;63.30
49379;DHT22;35254;47.990;-1.608;2022-11-11T07:39:46;18.30;63.30
49379;DHT22;35254;47.990;-1.608;2022-11-11T07:42:12;18.30;63.40
49379;DHT22;35254;47.990;-1.608;2022-11-11T07:44:37;18.30;63.60
49379;DHT22;35254;47.990;-1.608;2022-11-11T07:47:03;18.40;63.40
49379;DHT22;35254;47.990;-1.608;2022-11-11T07:49:29;18.30;63.40
49379;DHT22;35254;47.990;-1.608;2022-11-11T07:51:54;18.30;63.30
49379;DHT22;35254;47.990;-1.608;2022-11-11T07:54:20;18.30;63.40
49379;DHT22;35254;47.990;-1.608;2022-11-11T07:56:46;18.30;63.40
49379;DHT22;35254;47.990;-1.608;2022-11-11T07:59:11;18.30;63.30
49379;DHT22;35254;47.990;-1.608;2022-11-11T08:01:37;18.30;63.40
49379;DHT22;35254;47.990;-1.608;2022-11-11T08:04:02;18.30;63.20
49379;DHT22;35254;47.990;-1.608;2022-11-11T08:06:28;18.30;63.20
49379;DHT22;35254;47.990;-1.608;2022-11-11T08:08:54;18.30;63.10
49379;DHT22;35254;47.990;-1.608;2022-11-11T08:11:20;18.30;63.10
49379;DHT22;35254;47.990;-1.608;2022-11-11T08:14:05;18.30;63.20
49379;DHT22;35254;47.990;-1.608;2022-11-11T08:16:31;18.30;63.00
49379;DHT22;35254;47.990;-1.608;2022-11-11T08:18:57;18.20;63.10
49379;DHT22;35254;47.990;-1.608;2022-11-11T08:21:23;18.30;62.90
49379;DHT22;35254;47.990;-1.608;2022-11-11T08:23:49;18.30;62.90
49379;DHT22;35254;47.990;-1.608;2022-11-11T08:26:16;18.30;63.00
49379;DHT22;35254;47.990;-1.608;2022-11-11T08:28:43;18.30;63.00
49379;DHT22;35254;47.990;-1.608;2022-11-11T08:31:09;18.30;63.00
49379;DHT22;35254;47.990;-1.608;2022-11-11T08:33:35;18.30;63.00
49379;DHT22;35254;47.990;-1.608;2022-11-11T08:36:01;18.30;63.00
49379;DHT22;35254;47.990;-1.608;2022-11-11T08:38:27;18.30;63.10
49379;DHT22;35254;47.990;-1.608;2022-11-11T08:40:53;18.30;63.30
49379;DHT22;35254;47.990;-1.608;2022-11-11T08:43:19;18.30;63.20
49379;DHT22;35254;47.990;-1.608;2022-11-11T08:45:46;18.30;63.30
49379;DHT22;35254;47.990;-1.608;2022-11-11T08:48:12;18.30;63.30
49379;DHT22;35254;47.990;-1.608;2022-11-11T08:50:39;18.30;63.40
49379;DHT22;35254;47.990;-1.608;2022-11-11T08:53:08;18.20;63.40
49379;DHT22;35254;47.990;-1.608;2022-11-11T08:55:34;18.20;63.30
49379;DHT22;35254;47.990;-1.608;2022-11-11T08:58:02;18.20;63.30
49379;DHT22;35254;47.990;-1.608;2022-11-11T09:00:28;18.20;63.50
49379;DHT22;35254;47.990;-1.608;2022-11-11T09:02:54;18.20;63.60
49379;DHT22;35254;47.990;-1.608;2022-11-11T09:05:24;18.20;63.80
49379;DHT22;35254;47.990;-1.608;2022-11-11T09:07:50;18.20;63.80
49379;DHT22;35254;47.990;-1.608;2022-11-11T09:10:15;18.20;63.80
49379;DHT22;35254;47.990;-1.608;2022-11-11T09:12:41;18.20;63.80
49379;DHT22;35254;47.990;-1.608;2022-11-11T09:15:07;18.20;63.80
49379;DHT22;35254;47.990;-1.608;2022-11-11T09:17:32;18.20;63.90
49379;DHT22;35254;47.990;-1.608;2022-11-11T09:19:58;18.20;64.00
49379;DHT22;35254;47.990;-1.608;2022-11-11T09:22:23;18.20;64.10
49379;DHT22;35254;47.990;-1.608;2022-11-11T09:24:49;18.20;64.10
49379;DHT22;35254;47.990;-1.608;2022-11-11T09:27:16;18.10;64.00
49379;DHT22;35254;47.990;-1.608;2022-11-11T09:29:41;18.10;64.00
49379;DHT22;35254;47.990;-1.608;2022-11-11T09:32:07;18.20;64.00
49379;DHT22;35254;47.990;-1.608;2022-11-11T09:34:32;18.20;64.00
49379;DHT22;35254;47.990;-1.608;2022-11-11T09:36:58;18.20;64.10
49379;DHT22;35254;47.990;-1.608;2022-11-11T09:39:24;18.20;64.00
49379;DHT22;35254;47.990;-1.608;2022-11-11T09:41:57;18.20;64.10
49379;DHT22;35254;47.990;-1.608;2022-11-11T09:47:28;18.10;64.10
49379;DHT22;35254;47.990;-1.608;2022-11-11T09:50:02;18.10;64.20
49379;DHT22;35254;47.990;-1.608;2022-11-11T09:55:21;18.10;64.30
49379;DHT22;35254;47.990;-1.608;2022-11-11T09:57:57;18.10;64.40
49379;DHT22;35254;47.990;-1.608;2022-11-11T10:00:31;18.10;64.40
49379;DHT22;35254;47.990;-1.608;2022-11-11T10:03:04;18.10;64.50
49379;DHT22;35254;47.990;-1.608;2022-11-11T10:08:16;18.10;64.60
49379;DHT22;35254;47.990;-1.608;2022-11-11T10:13:19;18.10;64.60
49379;DHT22;35254;47.990;-1.608;2022-11-11T10:21:16;18.00;64.70
49379;DHT22;35254;47.990;-1.608;2022-11-11T10:23:47;18.00;64.80
49379;DHT22;35254;47.990;-1.608;2022-11-11T10:26:37;18.00;64.80
49379;DHT22;35254;47.990;-1.608;2022-11-11T10:29:17;18.00;64.90
49379;DHT22;35254;47.990;-1.608;2022-11-11T10:31:45;18.00;64.90
49379;DHT22;35254;47.990;-1.608;2022-11-11T10:34:15;18.00;64.80
49379;DHT22;35254;47.990;-1.608;2022-11-11T10:36:45;18.00;64.80
49379;DHT22;35254;47.990;-1.608;2022-11-11T10:39:14;18.00;64.70
49379;DHT22;35254;47.990;-1.608;2022-11-11T10:41:48;17.90;64.70
49379;DHT22;35254;47.990;-1.608;2022-11-11T10:49:34;17.90;64.50
49379;DHT22;35254;47.990;-1.608;2022-11-11T10:55:10;17.90;64.70
49379;DHT22;35254;47.990;-1.608;2022-11-11T10:57:52;17.90;64.80
49379;DHT22;35254;47.990;-1.608;2022-11-11T11:00:20;17.90;64.50
49379;DHT22;35254;47.990;-1.608;2022-11-11T11:05:24;17.90;64.60
49379;DHT22;35254;47.990;-1.608;2022-11-11T11:07:54;17.90;64.40
49379;DHT22;35254;47.990;-1.608;2022-11-11T11:10:26;17.90;64.50
49379;DHT22;35254;47.990;-1.608;2022-11-11T11:13:03;17.90;64.50
49379;DHT22;35254;47.990;-1.608;2022-11-11T11:15:34;17.90;64.60
49379;DHT22;35254;47.990;-1.608;2022-11-11T11:20:29;17.90;64.60
49379;DHT22;35254;47.990;-1.608;2022-11-11T11:22:57;18.00;64.60
49379;DHT22;35254;47.990;-1.608;2022-11-11T11:25:25;17.90;64.50
49379;DHT22;35254;47.990;-1.608;2022-11-11T11:28:08;18.00;64.70
49379;DHT22;35254;47.990;-1.608;2022-11-11T11:30:34;18.00;64.60
49379;DHT22;35254;47.990;-1.608;2022-11-11T11:33:04;17.90;64.50
49379;DHT22;35254;47.990;-1.608;2022-11-11T11:35:37;17.90;64.50
49379;DHT22;35254;47.990;-1.608;2022-11-11T11:38:05;17.90;64.60
49379;DHT22;35254;47.990;-1.608;2022-11-11T11:40:55;18.00;64.40
49379;DHT22;35254;47.990;-1.608;2022-11-11T11:43:36;17.90;64.50
49379;DHT22;35254;47.990;-1.608;2022-11-11T11:46:23;18.00;64.50
49379;DHT22;35254;47.990;-1.608;2022-11-11T12:00:32;18.00;64.70
49379;DHT22;35254;47.990;-1.608;2022-11-11T12:03:32;18.00;64.60
49379;DHT22;35254;47.990;-1.608;2022-11-11T12:06:21;18.00;64.80
49379;DHT22;35254;47.990;-1.608;2022-11-11T12:08:55;17.90;64.90
49379;DHT22;35254;47.990;-1.608;2022-11-11T12:11:41;17.90;65.10
49379;DHT22;35254;47.990;-1.608;2022-11-11T12:17:12;17.90;65.20
49379;DHT22;35254;47.990;-1.608;2022-11-11T12:20:01;17.90;65.30
49379;DHT22;35254;47.990;-1.608;2022-11-11T12:22:53;17.90;65.20
49379;DHT22;35254;47.990;-1.608;2022-11-11T12:25:41;17.90;65.40
49379;DHT22;35254;47.990;-1.608;2022-11-11T12:30:57;17.90;65.40
49379;DHT22;35254;47.990;-1.608;2022-11-11T12:45:22;17.90;65.40
49379;DHT22;35254;47.990;-1.608;2022-11-11T12:50:36;17.90;65.40
49379;DHT22;35254;47.990;-1.608;2022-11-11T12:53:21;17.90;65.60
49379;DHT22;35254;47.990;-1.608;2022-11-11T13:16:42;17.80;65.50
49379;DHT22;35254;47.990;-1.608;2022-11-11T13:22:24;17.80;65.60
49379;DHT22;35254;47.990;-1.608;2022-11-11T13:24:50;17.80;65.80
49379;DHT22;35254;47.990;-1.608;2022-11-11T13:27:34;17.80;65.70
49379;DHT22;35254;47.990;-1.608;2022-11-11T13:32:50;17.80;65.70
49379;DHT22;35254;47.990;-1.608;2022-11-11T13:35:26;17.80;65.70
49379;DHT22;35254;47.990;-1.608;2022-11-11T13:37:53;17.80;65.80
49379;DHT22;35254;47.990;-1.608;2022-11-11T13:40:39;17.80;65.70
49379;DHT22;35254;47.990;-1.608;2022-11-11T13:43:58;17.80;65.80
49379;DHT22;35254;47.990;-1.608;2022-11-11T13:46:04;17.80;65.80
49379;DHT22;35254;47.990;-1.608;2022-11-11T13:48:37;17.80;65.80
49379;DHT22;35254;47.990;-1.608;2022-11-11T13:53:52;17.80;65.90
49379;DHT22;35254;47.990;-1.608;2022-11-11T13:56:23;17.80;65.70
49379;DHT22;35254;47.990;-1.608;2022-11-11T13:58:50;17.80;65.80
49379;DHT22;35254;47.990;-1.608;2022-11-11T14:01:17;17.80;66.00
49379;DHT22;35254;47.990;-1.608;2022-11-11T14:13:57;17.80;66.10
49379;DHT22;35254;47.990;-1.608;2022-11-11T14:21:49;17.70;65.90
49379;DHT22;35254;47.990;-1.608;2022-11-11T14:24:42;17.80;66.00
49379;DHT22;35254;47.990;-1.608;2022-11-11T14:29:37;17.70;65.90
49379;DHT22;35254;47.990;-1.608;2022-11-11T14:40:32;17.70;65.70
49379;DHT22;35254;47.990;-1.608;2022-11-11T14:42:59;17.80;65.70
49379;DHT22;35254;47.990;-1.608;2022-11-11T14:51:39;17.80;65.80
49379;DHT22;35254;47.990;-1.608;2022-11-11T14:54:16;17.80;65.80
49379;DHT22;35254;47.990;-1.608;2022-11-11T14:56:42;17.80;65.70
49379;DHT22;35254;47.990;-1.608;2022-11-11T14:59:11;17.80;65.90
49379;DHT22;35254;47.990;-1.608;2022-11-11T15:01:39;17.80;65.80
49379;DHT22;35254;47.990;-1.608;2022-11-11T15:04:05;17.80;65.80
49379;DHT22;35254;47.990;-1.608;2022-11-11T15:06:51;17.80;65.90
49379;DHT22;35254;47.990;-1.608;2022-11-11T15:09:27;17.80;65.70
49379;DHT22;35254;47.990;-1.608;2022-11-11T15:14:51;17.80;65.90
49379;DHT22;35254;47.990;-1.608;2022-11-11T15:25:13;17.70;65.80
49379;DHT22;35254;47.990;-1.608;2022-11-11T15:30:11;17.70;65.80
49379;DHT22;35254;47.990;-1.608;2022-11-11T15:32:59;17.70;65.90
49379;DHT22;35254;47.990;-1.608;2022-11-11T15:35:44;17.70;65.90
49379;DHT22;35254;47.990;-1.608;2022-11-11T15:38:13;17.70;65.90
49379;DHT22;35254;47.990;-1.608;2022-11-11T15:40:48;17.70;65.90
49379;DHT22;35254;47.990;-1.608;2022-11-11T15:43:18;17.70;66.00
49379;DHT22;35254;47.990;-1.608;2022-11-11T15:45:45;17.70;66.00
49379;DHT22;35254;47.990;-1.608;2022-11-11T15:48:20;17.70;65.80
49379;DHT22;35254;47.990;-1.608;2022-11-11T15:50:47;17.70;65.90
49379;DHT22;35254;47.990;-1.608;2022-11-11T15:53:19;17.70;65.90
49379;DHT22;35254;47.990;-1.608;2022-11-11T15:55:54;17.70;65.80
49379;DHT22;35254;47.990;-1.608;2022-11-11T16:00:51;17.70;65.90
49379;DHT22;35254;47.990;-1.608;2022-11-11T16:03:26;17.70;66.00
49379;DHT22;35254;47.990;-1.608;2022-11-11T16:05:53;17.70;66.00
49379;DHT22;35254;47.990;-1.608;2022-11-11T16:08:19;17.70;66.00
49379;DHT22;35254;47.990;-1.608;2022-11-11T16:10:51;17.70;65.90
49379;DHT22;35254;47.990;-1.608;2022-11-11T16:13:22;17.70;66.00
49379;DHT22;35254;47.990;-1.608;2022-11-11T16:16:02;17.70;66.10
49379;DHT22;35254;47.990;-1.608;2022-11-11T16:18:31;17.70;65.90
49379;DHT22;35254;47.990;-1.608;2022-11-11T16:21:11;17.70;66.00
49379;DHT22;35254;47.990;-1.608;2022-11-11T16:23:39;17.70;66.00
49379;DHT22;35254;47.990;-1.608;2022-11-11T16:26:07;17.70;65.80
49379;DHT22;35254;47.990;-1.608;2022-11-11T16:28:40;17.70;65.80
49379;DHT22;35254;47.990;-1.608;2022-11-11T16:33:58;17.70;65.90
49379;DHT22;35254;47.990;-1.608;2022-11-11T16:36:24;17.70;65.80
49379;DHT22;35254;47.990;-1.608;2022-11-11T16:38:49;17.60;65.80
49379;DHT22;35254;47.990;-1.608;2022-11-11T16:43:48;17.60;65.70
49379;DHT22;35254;47.990;-1.608;2022-11-11T16:46:34;17.60;65.60
49379;DHT22;35254;47.990;-1.608;2022-11-11T16:51:54;17.70;63.80
49379;DHT22;35254;47.990;-1.608;2022-11-11T16:54:32;17.70;63.00
49379;DHT22;35254;47.990;-1.608;2022-11-11T16:56:59;17.70;62.60
49379;DHT22;35254;47.990;-1.608;2022-11-11T17:01:59;17.70;62.10
49379;DHT22;35254;47.990;-1.608;2022-11-11T17:04:24;17.70;61.80
49379;DHT22;35254;47.990;-1.608;2022-11-11T17:06:56;17.60;61.80
49379;DHT22;35254;47.990;-1.608;2022-11-11T17:09:34;17.60;61.40
49379;DHT22;35254;47.990;-1.608;2022-11-11T17:12:00;17.50;61.30
49379;DHT22;35254;47.990;-1.608;2022-11-11T17:14:28;17.60;61.20
49379;DHT22;35254;47.990;-1.608;2022-11-11T17:16:54;17.60;61.00
49379;DHT22;35254;47.990;-1.608;2022-11-11T17:19:20;17.50;60.90
49379;DHT22;35254;47.990;-1.608;2022-11-11T17:21:48;17.50;60.80
49379;DHT22;35254;47.990;-1.608;2022-11-11T17:24:14;17.50;60.60
49379;DHT22;35254;47.990;-1.608;2022-11-11T17:26:40;17.50;60.60
49379;DHT22;35254;47.990;-1.608;2022-11-11T17:29:06;17.40;60.60
49379;DHT22;35254;47.990;-1.608;2022-11-11T17:31:35;17.40;60.60
49379;DHT22;35254;47.990;-1.608;2022-11-11T17:34:08;17.40;60.60
49379;DHT22;35254;47.990;-1.608;2022-11-11T17:36:34;17.40;60.70
49379;DHT22;35254;47.990;-1.608;2022-11-11T17:39:00;17.50;59.90
49379;DHT22;35254;47.990;-1.608;2022-11-11T17:41:25;17.50;59.90
49379;DHT22;35254;47.990;-1.608;2022-11-11T17:43:51;17.60;59.70
49379;DHT22;35254;47.990;-1.608;2022-11-11T17:46:16;17.60;59.30
49379;DHT22;35254;47.990;-1.608;2022-11-11T17:48:42;17.60;59.30
49379;DHT22;35254;47.990;-1.608;2022-11-11T17:51:07;17.70;59.10
49379;DHT22;35254;47.990;-1.608;2022-11-11T17:53:35;17.70;59.00
49379;DHT22;35254;47.990;-1.608;2022-11-11T17:56:02;17.70;59.10
49379;DHT22;35254;47.990;-1.608;2022-11-11T17:58:29;17.70;59.00
49379;DHT22;35254;47.990;-1.608;2022-11-11T18:00:54;17.70;59.00
49379;DHT22;35254;47.990;-1.608;2022-11-11T18:03:28;17.70;58.80
49379;DHT22;35254;47.990;-1.608;2022-11-11T18:05:53;17.70;58.90
49379;DHT22;35254;47.990;-1.608;2022-11-11T18:08:19;17.70;58.80
49379;DHT22;35254;47.990;-1.608;2022-11-11T18:10:44;17.70;58.70
49379;DHT22;35254;47.990;-1.608;2022-11-11T18:13:10;17.70;58.80
49379;DHT22;35254;47.990;-1.608;2022-11-11T18:15:35;17.70;58.80
49379;DHT22;35254;47.990;-1.608;2022-11-11T18:18:01;17.70;58.60
49379;DHT22;35254;47.990;-1.608;2022-11-11T18:20:27;17.70;58.50